METAR Data
IDs: Format: Raw Decoded Include TAF

Data at: 1851 UTC 26 Sep 2021

ZUUU 261800Z 21003MPS 180V240 9999 -SHRA FEW040TCU SCT040 21/20 Q1016 NOSIG